Weather at John B Connally Ranch Airport

Public forecast

Using degrees Fahrenheit for public forecast. Weather courtesy of forecast.io.

Closest aviation weather report (METAR) to John B Connally Ranch Airport

Closest report is Stinson Municipal Airport, 15.8 nm (29.3 km) NW.

2024/07/14 17:53 (retrieved 18 minutes ago)

KSSF 141753Z 19006KT 10SM FEW027 OVC200 30/23 A3014 RMK AO2 SLP193 T03000228 10300 20256 58006

Closest aviation forecast (TAF) to John B Connally Ranch Airport

Closest forecast is Stinson Municipal Airport, 15.8 nm (29.3 km) NW.

2024/07/14 18:22 (retrieved 0 seconds ago)

TAF KSSF 141720Z 1418/1518 16007KT P6SM SCT040 BKN150 FM150800 17007KT P6SM SCT015 BKN070